MA97 weather

Waters Airport
Sutton, Massachusetts, United States

Public forecast

Using degrees Fahrenheit for public forecast. Weather courtesy of forecast.io.

METAR (pilot weather report)

Closest report is Worcester Regional Airport, 10.5 nm (19.4 km) NW. Retrieved 2019/09/19 16:54 UTC (49 minutes ago):

KORH 191654Z VRB03KT 10SM CLR 17/03 A3033 RMK AO2 SLP274 T01670033

TAF (pilot weather forecast)

Closest forecast is Worcester Regional Airport, 10.5 nm (19.4 km) NW. Retrieved 2019/09/19 12:48 UTC (5 hours ago):

TAF KORH 191146Z 1912/2012 35006KT P6SM SKC FM200200 26006KT P6SM SKC